aviador You're here:

KLKR Decoded Metar

LANCASTER in SC, USA
Report Time2017-08-19 14:55:00
UTC Time2017-08-19 14:58:21
Flight Rules vfr VFR
Wind060° at 06 kt
W.Decomp.*RWY 06: 6.0 kt HW 0.7 kt RCW
W.Rank060° ranks 8
Current wind is above 060° avg. (4.9)
Visibility9999 m
Phenomena:N/A
Clouds:N/A
Expected CloudBase > 3,200 ft AGL from Temp-Dew spread
CeilingNone
Temp30°C (ISA +16)
Dew Point22°C (62% RH)
Heat Index33.2°C
QNH1015 hPa
Density Alt2,602 ft
Elevation489 ft
Report Wrong Elevation
Raw Report
METAR KLKR 191455Z AUTO 06006KT 9SM CLR 30/22 A2998 RMK AO2=

Extra information for KLKR:More info

Metar Taf Metar & Taf Last 4 Metars F.Rules Stats Wind Profile Meteogram Temp Stats Airport Information Weather charts Add Link Nearby VenuesMetar ALERT Operation Metar Decoded Social comments

AIRNAV info for KLKR